Airfield :
LOGIN :

Register | Disclaimer

   EN    FR    IT 

 










Legend :    VFR   Marginal VFR   IFR   Intensive IFR   Very Intensive IFR
Visi :
Ceiling :
>= 8 km
>= 3000ft
5 to 8 km
1000 to 3000 ft
1500m to 5 km
500 to 1000 ft
800 to 1500m
200 to 500 ft
< 800m
< 200 ft
Symbols :   Thunderstorms  Fog  Heavy snow  Heavy precipitations  Wind > 20 kt
SIGMETs :     Misc.  Thunderstorms  Icing  Turbulence  Mountain Waves  Volcanic Ashes







- Airport Elevation : 72 ft
- IATA code : UDE


EHVK - Volkel Airbase

CURRENT METAR :
  • 230025Z AUTO 07010KT 040V100 9999 NCD 12/02 Q1003 BLU

EXPIRED METARs :
  • 222355Z AUTO 07010KT 050V110 9999 NCD 13/01 Q1003 BLU
  • 222325Z AUTO 08011KT 9999 NCD 14/01 Q1004 BLU
  • 222255Z AUTO 08011KT 9999 NCD 15/M00 Q1004 BLU
  • 222225Z AUTO 08012KT 050V120 9999 BKN260 16/00 Q1004 BLU
  • 222155Z AUTO 08011KT 060V120 9999 NCD 16/00 Q1004 BLU

TAF TAF EHVK
Valid from the 22 at 21:00 until the 23 at 09:00 UTC


222026Z 2221/2309 08010KT CAVOK
BECMG 2307/2309 09012G24KT
No reported NOTAMs for that airfield.



MET'MAP, your aeronautical weather chart ! - Copyright ORBIFLY December 2007 - Disclaimer

ORBIFLY MET'MAP TEAM :

Programming & Development : Alexandra Zaïnal
Concept & Development : Baudouin d'Aumeries
Co-Development & Prog : Marc-Olivier Méhu
Technical & hardware support : Manuel Goepfert

Contact : metmap@orbifly.com




SOURCES & CREDITS :

   NOAA